sensor_id;sensor_type;location;lat;lon;timestamp;temperature;humidity
47174;DHT22;36730;49.036;9.094;2023-06-14T00:00:31;26.90;43.30
47174;DHT22;36730;49.036;9.094;2023-06-14T00:02:56;26.90;43.30
47174;DHT22;36730;49.036;9.094;2023-06-14T00:05:22;26.90;43.30
47174;DHT22;36730;49.036;9.094;2023-06-14T00:07:48;26.90;43.40
47174;DHT22;36730;49.036;9.094;2023-06-14T00:10:14;26.80;43.50
47174;DHT22;36730;49.036;9.094;2023-06-14T00:12:40;26.90;43.50
47174;DHT22;36730;49.036;9.094;2023-06-14T00:15:06;26.90;43.50
47174;DHT22;36730;49.036;9.094;2023-06-14T00:17:32;26.80;43.50
47174;DHT22;36730;49.036;9.094;2023-06-14T00:19:58;26.90;43.50
47174;DHT22;36730;49.036;9.094;2023-06-14T00:22:24;26.80;43.50
47174;DHT22;36730;49.036;9.094;2023-06-14T00:24:57;26.80;43.60
47174;DHT22;36730;49.036;9.094;2023-06-14T00:27:22;26.80;43.70
47174;DHT22;36730;49.036;9.094;2023-06-14T00:29:47;26.80;43.80
47174;DHT22;36730;49.036;9.094;2023-06-14T00:32:13;26.80;43.80
47174;DHT22;36730;49.036;9.094;2023-06-14T00:34:39;26.80;43.80
47174;DHT22;36730;49.036;9.094;2023-06-14T00:37:04;26.80;43.90
47174;DHT22;36730;49.036;9.094;2023-06-14T00:39:30;26.80;43.80
47174;DHT22;36730;49.036;9.094;2023-06-14T00:41:55;26.80;43.80
47174;DHT22;36730;49.036;9.094;2023-06-14T00:44:21;26.70;43.90
47174;DHT22;36730;49.036;9.094;2023-06-14T00:46:47;26.70;43.90
47174;DHT22;36730;49.036;9.094;2023-06-14T00:49:16;26.70;43.90
47174;DHT22;36730;49.036;9.094;2023-06-14T00:51:43;26.70;43.90
47174;DHT22;36730;49.036;9.094;2023-06-14T00:54:08;26.70;43.90
47174;DHT22;36730;49.036;9.094;2023-06-14T00:56:37;26.70;43.90
47174;DHT22;36730;49.036;9.094;2023-06-14T00:59:03;26.70;43.90
47174;DHT22;36730;49.036;9.094;2023-06-14T01:01:30;26.70;44.00
47174;DHT22;36730;49.036;9.094;2023-06-14T01:03:58;26.70;44.00
47174;DHT22;36730;49.036;9.094;2023-06-14T01:06:35;26.70;44.10
47174;DHT22;36730;49.036;9.094;2023-06-14T01:09:09;26.70;44.20
47174;DHT22;36730;49.036;9.094;2023-06-14T01:12:21;26.70;44.10
47174;DHT22;36730;49.036;9.094;2023-06-14T01:14:25;26.60;44.00
47174;DHT22;36730;49.036;9.094;2023-06-14T01:16:52;26.60;44.10
47174;DHT22;36730;49.036;9.094;2023-06-14T01:19:18;26.70;44.30
47174;DHT22;36730;49.036;9.094;2023-06-14T01:21:44;26.60;44.20
47174;DHT22;36730;49.036;9.094;2023-06-14T01:24:09;26.60;44.20
47174;DHT22;36730;49.036;9.094;2023-06-14T01:26:36;26.60;44.20
47174;DHT22;36730;49.036;9.094;2023-06-14T01:29:03;26.60;44.20
47174;DHT22;36730;49.036;9.094;2023-06-14T01:31:28;26.60;44.20
47174;DHT22;36730;49.036;9.094;2023-06-14T01:33:54;26.60;44.20
47174;DHT22;36730;49.036;9.094;2023-06-14T01:36:20;26.50;44.20
47174;DHT22;36730;49.036;9.094;2023-06-14T01:38:48;26.50;44.30
47174;DHT22;36730;49.036;9.094;2023-06-14T01:41:15;26.50;44.30
47174;DHT22;36730;49.036;9.094;2023-06-14T01:43:41;26.50;44.50
47174;DHT22;36730;49.036;9.094;2023-06-14T01:46:08;26.50;44.40
47174;DHT22;36730;49.036;9.094;2023-06-14T01:48:34;26.50;44.50
47174;DHT22;36730;49.036;9.094;2023-06-14T01:50:59;26.50;44.40
47174;DHT22;36730;49.036;9.094;2023-06-14T01:53:25;26.50;44.40
47174;DHT22;36730;49.036;9.094;2023-06-14T01:55:50;26.40;44.40
47174;DHT22;36730;49.036;9.094;2023-06-14T01:58:19;26.40;44.60
47174;DHT22;36730;49.036;9.094;2023-06-14T02:00:44;26.30;44.50
47174;DHT22;36730;49.036;9.094;2023-06-14T02:03:10;26.40;44.80
47174;DHT22;36730;49.036;9.094;2023-06-14T02:05:37;26.30;44.60
47174;DHT22;36730;49.036;9.094;2023-06-14T02:08:04;26.40;44.80
47174;DHT22;36730;49.036;9.094;2023-06-14T02:10:30;26.40;44.70
47174;DHT22;36730;49.036;9.094;2023-06-14T02:12:55;26.30;44.70
47174;DHT22;36730;49.036;9.094;2023-06-14T02:15:21;26.30;44.70
47174;DHT22;36730;49.036;9.094;2023-06-14T02:17:47;26.40;44.70
47174;DHT22;36730;49.036;9.094;2023-06-14T02:20:13;26.40;44.70
47174;DHT22;36730;49.036;9.094;2023-06-14T02:22:38;26.40;44.70
47174;DHT22;36730;49.036;9.094;2023-06-14T02:25:04;26.40;44.70
47174;DHT22;36730;49.036;9.094;2023-06-14T02:27:29;26.30;44.70
47174;DHT22;36730;49.036;9.094;2023-06-14T02:29:55;26.30;44.70
47174;DHT22;36730;49.036;9.094;2023-06-14T02:32:20;26.30;44.70
47174;DHT22;36730;49.036;9.094;2023-06-14T02:34:46;26.30;44.80
47174;DHT22;36730;49.036;9.094;2023-06-14T02:37:15;26.30;44.80
47174;DHT22;36730;49.036;9.094;2023-06-14T02:39:41;26.30;44.90
47174;DHT22;36730;49.036;9.094;2023-06-14T02:42:06;26.30;44.90
47174;DHT22;36730;49.036;9.094;2023-06-14T02:44:32;26.30;44.90
47174;DHT22;36730;49.036;9.094;2023-06-14T02:46:57;26.20;44.80
47174;DHT22;36730;49.036;9.094;2023-06-14T02:49:24;26.30;44.90
47174;DHT22;36730;49.036;9.094;2023-06-14T02:51:49;26.20;44.90
47174;DHT22;36730;49.036;9.094;2023-06-14T02:54:15;26.30;44.90
47174;DHT22;36730;49.036;9.094;2023-06-14T02:56:40;26.20;45.00
47174;DHT22;36730;49.036;9.094;2023-06-14T02:59:06;26.20;45.00
47174;DHT22;36730;49.036;9.094;2023-06-14T03:01:32;26.20;44.90
47174;DHT22;36730;49.036;9.094;2023-06-14T03:04:01;26.00;44.50
47174;DHT22;36730;49.036;9.094;2023-06-14T03:06:28;25.60;44.90
47174;DHT22;36730;49.036;9.094;2023-06-14T03:08:56;25.30;45.30
47174;DHT22;36730;49.036;9.094;2023-06-14T03:11:24;24.90;45.70
47174;DHT22;36730;49.036;9.094;2023-06-14T03:13:50;24.70;46.40
47174;DHT22;36730;49.036;9.094;2023-06-14T03:16:17;24.40;46.90
47174;DHT22;36730;49.036;9.094;2023-06-14T03:18:45;24.20;47.50
47174;DHT22;36730;49.036;9.094;2023-06-14T03:21:10;24.00;47.80
47174;DHT22;36730;49.036;9.094;2023-06-14T03:23:36;23.80;48.20
47174;DHT22;36730;49.036;9.094;2023-06-14T03:26:01;23.60;48.70
47174;DHT22;36730;49.036;9.094;2023-06-14T03:28:27;23.40;49.10
47174;DHT22;36730;49.036;9.094;2023-06-14T03:30:52;23.20;49.50
47174;DHT22;36730;49.036;9.094;2023-06-14T03:33:18;23.10;49.80
47174;DHT22;36730;49.036;9.094;2023-06-14T03:35:44;23.00;50.00
47174;DHT22;36730;49.036;9.094;2023-06-14T03:38:09;22.80;50.40
47174;DHT22;36730;49.036;9.094;2023-06-14T03:40:35;22.70;50.80
47174;DHT22;36730;49.036;9.094;2023-06-14T03:43:00;22.60;51.00
47174;DHT22;36730;49.036;9.094;2023-06-14T03:45:26;22.50;51.20
47174;DHT22;36730;49.036;9.094;2023-06-14T03:47:51;22.50;51.50
47174;DHT22;36730;49.036;9.094;2023-06-14T03:50:18;22.40;51.90
47174;DHT22;36730;49.036;9.094;2023-06-14T03:52:44;22.30;52.10
47174;DHT22;36730;49.036;9.094;2023-06-14T03:55:09;22.20;52.30
47174;DHT22;36730;49.036;9.094;2023-06-14T03:57:35;22.10;52.80
47174;DHT22;36730;49.036;9.094;2023-06-14T04:00:01;22.30;52.70
47174;DHT22;36730;49.036;9.094;2023-06-14T04:02:27;22.40;52.50
47174;DHT22;36730;49.036;9.094;2023-06-14T04:04:54;22.50;52.40
47174;DHT22;36730;49.036;9.094;2023-06-14T04:07:20;22.70;52.20
47174;DHT22;36730;49.036;9.094;2023-06-14T04:09:45;22.80;52.00
47174;DHT22;36730;49.036;9.094;2023-06-14T04:12:11;22.90;51.80
47174;DHT22;36730;49.036;9.094;2023-06-14T04:14:37;23.00;51.70
47174;DHT22;36730;49.036;9.094;2023-06-14T04:17:03;23.10;51.50
47174;DHT22;36730;49.036;9.094;2023-06-14T04:19:29;23.20;51.50
47174;DHT22;36730;49.036;9.094;2023-06-14T04:21:54;23.30;51.60
47174;DHT22;36730;49.036;9.094;2023-06-14T04:24:20;23.30;51.30
47174;DHT22;36730;49.036;9.094;2023-06-14T04:26:45;23.40;51.30
47174;DHT22;36730;49.036;9.094;2023-06-14T04:29:13;23.40;51.30
47174;DHT22;36730;49.036;9.094;2023-06-14T04:31:39;23.50;51.30
47174;DHT22;36730;49.036;9.094;2023-06-14T04:34:05;23.50;51.70
47174;DHT22;36730;49.036;9.094;2023-06-14T04:36:34;23.50;51.60
47174;DHT22;36730;49.036;9.094;2023-06-14T04:39:03;23.60;51.50
47174;DHT22;36730;49.036;9.094;2023-06-14T04:41:29;23.60;51.80
47174;DHT22;36730;49.036;9.094;2023-06-14T04:43:56;23.60;52.00
47174;DHT22;36730;49.036;9.094;2023-06-14T04:46:22;23.70;52.40
47174;DHT22;36730;49.036;9.094;2023-06-14T04:48:47;23.70;52.30
47174;DHT22;36730;49.036;9.094;2023-06-14T04:51:15;23.70;52.70
47174;DHT22;36730;49.036;9.094;2023-06-14T04:53:41;23.80;52.10
47174;DHT22;36730;49.036;9.094;2023-06-14T04:56:07;23.80;51.60
47174;DHT22;36730;49.036;9.094;2023-06-14T04:58:32;23.80;52.10
47174;DHT22;36730;49.036;9.094;2023-06-14T05:00:58;23.80;52.30
47174;DHT22;36730;49.036;9.094;2023-06-14T05:03:24;23.80;51.80
47174;DHT22;36730;49.036;9.094;2023-06-14T05:05:50;23.90;52.90
47174;DHT22;36730;49.036;9.094;2023-06-14T05:08:16;23.90;52.70
47174;DHT22;36730;49.036;9.094;2023-06-14T05:10:41;23.80;52.60
47174;DHT22;36730;49.036;9.094;2023-06-14T05:13:07;23.80;53.50
47174;DHT22;36730;49.036;9.094;2023-06-14T05:15:33;23.80;52.50
47174;DHT22;36730;49.036;9.094;2023-06-14T05:17:58;23.80;52.60
47174;DHT22;36730;49.036;9.094;2023-06-14T05:20:24;23.80;52.90
47174;DHT22;36730;49.036;9.094;2023-06-14T05:22:52;23.80;52.90
47174;DHT22;36730;49.036;9.094;2023-06-14T05:25:21;23.80;52.50
47174;DHT22;36730;49.036;9.094;2023-06-14T05:27:46;23.80;52.50
47174;DHT22;36730;49.036;9.094;2023-06-14T05:30:13;23.90;52.40
47174;DHT22;36730;49.036;9.094;2023-06-14T05:32:38;24.00;52.70
47174;DHT22;36730;49.036;9.094;2023-06-14T05:35:04;23.90;52.10
47174;DHT22;36730;49.036;9.094;2023-06-14T05:37:31;24.00;52.20
47174;DHT22;36730;49.036;9.094;2023-06-14T05:39:56;24.00;52.60
47174;DHT22;36730;49.036;9.094;2023-06-14T05:42:22;24.00;52.40
47174;DHT22;36730;49.036;9.094;2023-06-14T05:44:47;24.00;52.60
47174;DHT22;36730;49.036;9.094;2023-06-14T05:47:13;24.00;52.90
47174;DHT22;36730;49.036;9.094;2023-06-14T05:49:38;24.00;53.00
47174;DHT22;36730;49.036;9.094;2023-06-14T05:52:04;23.90;52.80
47174;DHT22;36730;49.036;9.094;2023-06-14T05:54:30;23.90;53.30
47174;DHT22;36730;49.036;9.094;2023-06-14T05:56:55;24.00;52.80
47174;DHT22;36730;49.036;9.094;2023-06-14T05:59:21;24.00;52.70
47174;DHT22;36730;49.036;9.094;2023-06-14T06:01:46;24.10;52.50
47174;DHT22;36730;49.036;9.094;2023-06-14T06:04:12;24.10;52.90
47174;DHT22;36730;49.036;9.094;2023-06-14T06:06:37;24.20;52.30
47174;DHT22;36730;49.036;9.094;2023-06-14T06:09:03;24.20;52.50
47174;DHT22;36730;49.036;9.094;2023-06-14T06:11:30;24.20;52.00
47174;DHT22;36730;49.036;9.094;2023-06-14T06:13:55;24.20;52.00
47174;DHT22;36730;49.036;9.094;2023-06-14T06:16:21;24.30;51.50
47174;DHT22;36730;49.036;9.094;2023-06-14T06:18:46;24.30;51.60
47174;DHT22;36730;49.036;9.094;2023-06-14T06:21:11;24.40;51.50
47174;DHT22;36730;49.036;9.094;2023-06-14T06:23:37;24.40;51.50
47174;DHT22;36730;49.036;9.094;2023-06-14T06:26:03;24.40;51.10
47174;DHT22;36730;49.036;9.094;2023-06-14T06:28:28;24.40;51.20
47174;DHT22;36730;49.036;9.094;2023-06-14T06:30:54;24.50;51.20
47174;DHT22;36730;49.036;9.094;2023-06-14T06:33:19;24.50;51.00
47174;DHT22;36730;49.036;9.094;2023-06-14T06:35:45;24.50;51.10
47174;DHT22;36730;49.036;9.094;2023-06-14T06:38:10;24.60;51.00
47174;DHT22;36730;49.036;9.094;2023-06-14T06:40:36;24.60;50.70
47174;DHT22;36730;49.036;9.094;2023-06-14T06:43:02;24.60;51.10
47174;DHT22;36730;49.036;9.094;2023-06-14T06:45:27;24.70;51.30
47174;DHT22;36730;49.036;9.094;2023-06-14T06:47:53;24.70;51.10
47174;DHT22;36730;49.036;9.094;2023-06-14T06:50:18;24.80;51.00
47174;DHT22;36730;49.036;9.094;2023-06-14T06:52:45;24.80;50.60
47174;DHT22;36730;49.036;9.094;2023-06-14T06:55:10;24.80;50.80
47174;DHT22;36730;49.036;9.094;2023-06-14T06:57:36;24.80;50.70
47174;DHT22;36730;49.036;9.094;2023-06-14T07:00:02;24.80;50.70
47174;DHT22;36730;49.036;9.094;2023-06-14T07:02:30;24.80;50.90
47174;DHT22;36730;49.036;9.094;2023-06-14T07:04:56;24.90;51.00
47174;DHT22;36730;49.036;9.094;2023-06-14T07:07:21;24.90;51.00
47174;DHT22;36730;49.036;9.094;2023-06-14T07:09:47;24.90;50.60
47174;DHT22;36730;49.036;9.094;2023-06-14T07:12:12;25.00;50.90
47174;DHT22;36730;49.036;9.094;2023-06-14T07:14:38;25.00;50.90
47174;DHT22;36730;49.036;9.094;2023-06-14T07:17:03;25.00;50.80
47174;DHT22;36730;49.036;9.094;2023-06-14T07:19:29;25.10;50.80
47174;DHT22;36730;49.036;9.094;2023-06-14T07:21:55;25.10;50.90
47174;DHT22;36730;49.036;9.094;2023-06-14T07:24:21;25.20;51.10
47174;DHT22;36730;49.036;9.094;2023-06-14T07:26:46;25.20;50.80
47174;DHT22;36730;49.036;9.094;2023-06-14T07:29:13;25.30;50.80
47174;DHT22;36730;49.036;9.094;2023-06-14T07:31:38;25.30;50.60
47174;DHT22;36730;49.036;9.094;2023-06-14T07:34:04;25.30;50.80
47174;DHT22;36730;49.036;9.094;2023-06-14T07:36:29;25.40;50.60
47174;DHT22;36730;49.036;9.094;2023-06-14T07:38:55;25.40;50.50
47174;DHT22;36730;49.036;9.094;2023-06-14T07:41:21;25.40;50.60
47174;DHT22;36730;49.036;9.094;2023-06-14T07:43:47;25.50;50.70
47174;DHT22;36730;49.036;9.094;2023-06-14T07:46:12;25.60;50.70
47174;DHT22;36730;49.036;9.094;2023-06-14T07:48:38;25.50;51.10
47174;DHT22;36730;49.036;9.094;2023-06-14T07:51:03;25.60;51.10
47174;DHT22;36730;49.036;9.094;2023-06-14T07:53:29;25.60;50.70
47174;DHT22;36730;49.036;9.094;2023-06-14T07:55:56;25.60;50.90
47174;DHT22;36730;49.036;9.094;2023-06-14T07:58:21;25.60;50.70
47174;DHT22;36730;49.036;9.094;2023-06-14T08:00:47;25.60;51.20
47174;DHT22;36730;49.036;9.094;2023-06-14T08:03:12;25.60;51.00
47174;DHT22;36730;49.036;9.094;2023-06-14T08:05:38;25.60;51.10
47174;DHT22;36730;49.036;9.094;2023-06-14T08:08:03;25.60;51.60
47174;DHT22;36730;49.036;9.094;2023-06-14T08:10:29;25.70;51.10
47174;DHT22;36730;49.036;9.094;2023-06-14T08:12:54;25.70;51.00
47174;DHT22;36730;49.036;9.094;2023-06-14T08:15:20;25.70;50.60
47174;DHT22;36730;49.036;9.094;2023-06-14T08:17:45;25.70;50.40
47174;DHT22;36730;49.036;9.094;2023-06-14T08:20:12;25.60;50.50
47174;DHT22;36730;49.036;9.094;2023-06-14T08:22:37;25.60;50.50
47174;DHT22;36730;49.036;9.094;2023-06-14T08:25:03;25.60;50.50
47174;DHT22;36730;49.036;9.094;2023-06-14T08:27:29;25.60;50.50
47174;DHT22;36730;49.036;9.094;2023-06-14T08:29:55;25.60;50.70
47174;DHT22;36730;49.036;9.094;2023-06-14T08:32:21;25.70;50.50
47174;DHT22;36730;49.036;9.094;2023-06-14T08:34:46;25.70;50.20
47174;DHT22;36730;49.036;9.094;2023-06-14T08:37:12;25.70;50.20
47174;DHT22;36730;49.036;9.094;2023-06-14T08:39:37;25.70;50.00
47174;DHT22;36730;49.036;9.094;2023-06-14T08:42:03;25.80;50.50
47174;DHT22;36730;49.036;9.094;2023-06-14T08:44:29;25.80;50.20
47174;DHT22;36730;49.036;9.094;2023-06-14T08:46:55;25.90;50.30
47174;DHT22;36730;49.036;9.094;2023-06-14T08:49:22;25.90;50.50
47174;DHT22;36730;49.036;9.094;2023-06-14T08:51:48;25.90;50.30
47174;DHT22;36730;49.036;9.094;2023-06-14T08:54:17;25.90;50.80
47174;DHT22;36730;49.036;9.094;2023-06-14T08:56:46;25.90;50.00
47174;DHT22;36730;49.036;9.094;2023-06-14T08:59:13;25.90;49.90
47174;DHT22;36730;49.036;9.094;2023-06-14T09:01:39;25.90;49.50
47174;DHT22;36730;49.036;9.094;2023-06-14T09:04:05;25.90;50.50
47174;DHT22;36730;49.036;9.094;2023-06-14T09:06:31;25.90;49.20
47174;DHT22;36730;49.036;9.094;2023-06-14T09:08:56;26.00;49.30
47174;DHT22;36730;49.036;9.094;2023-06-14T09:11:22;26.00;49.50
47174;DHT22;36730;49.036;9.094;2023-06-14T09:13:48;26.00;50.30
47174;DHT22;36730;49.036;9.094;2023-06-14T09:16:14;26.00;50.00
47174;DHT22;36730;49.036;9.094;2023-06-14T09:18:43;26.10;49.60
47174;DHT22;36730;49.036;9.094;2023-06-14T09:21:10;26.10;49.40
47174;DHT22;36730;49.036;9.094;2023-06-14T09:23:42;26.20;49.30
47174;DHT22;36730;49.036;9.094;2023-06-14T09:26:15;26.20;49.00
47174;DHT22;36730;49.036;9.094;2023-06-14T09:31:12;26.20;48.10
47174;DHT22;36730;49.036;9.094;2023-06-14T09:33:38;26.30;48.10
47174;DHT22;36730;49.036;9.094;2023-06-14T09:36:10;26.30;48.90
47174;DHT22;36730;49.036;9.094;2023-06-14T09:38:36;26.30;48.30
47174;DHT22;36730;49.036;9.094;2023-06-14T09:41:01;26.30;47.80
47174;DHT22;36730;49.036;9.094;2023-06-14T09:43:28;26.30;48.70
47174;DHT22;36730;49.036;9.094;2023-06-14T09:45:54;26.40;48.60
47174;DHT22;36730;49.036;9.094;2023-06-14T09:48:20;26.40;48.80
47174;DHT22;36730;49.036;9.094;2023-06-14T09:50:46;26.50;48.50
47174;DHT22;36730;49.036;9.094;2023-06-14T09:53:14;26.50;48.00
47174;DHT22;36730;49.036;9.094;2023-06-14T09:55:40;26.60;48.30
47174;DHT22;36730;49.036;9.094;2023-06-14T09:58:07;26.60;48.20
47174;DHT22;36730;49.036;9.094;2023-06-14T10:00:33;26.60;47.70
47174;DHT22;36730;49.036;9.094;2023-06-14T10:03:13;26.60;48.40
47174;DHT22;36730;49.036;9.094;2023-06-14T10:05:39;26.70;48.30
47174;DHT22;36730;49.036;9.094;2023-06-14T10:08:10;26.80;47.70
47174;DHT22;36730;49.036;9.094;2023-06-14T10:10:36;26.80;46.60
47174;DHT22;36730;49.036;9.094;2023-06-14T10:13:03;26.80;46.40
47174;DHT22;36730;49.036;9.094;2023-06-14T10:17:59;26.80;46.00
47174;DHT22;36730;49.036;9.094;2023-06-14T10:20:44;26.80;45.20
47174;DHT22;36730;49.036;9.094;2023-06-14T10:23:13;26.80;45.20
47174;DHT22;36730;49.036;9.094;2023-06-14T10:25:41;26.80;44.20
47174;DHT22;36730;49.036;9.094;2023-06-14T10:28:20;26.80;42.70
47174;DHT22;36730;49.036;9.094;2023-06-14T10:31:21;26.80;42.00
47174;DHT22;36730;49.036;9.094;2023-06-14T10:33:50;26.90;43.30
47174;DHT22;36730;49.036;9.094;2023-06-14T10:38:56;26.90;43.30
47174;DHT22;36730;49.036;9.094;2023-06-14T10:41:22;26.90;42.80
47174;DHT22;36730;49.036;9.094;2023-06-14T10:43:47;27.00;42.70
47174;DHT22;36730;49.036;9.094;2023-06-14T10:46:18;27.00;42.80
47174;DHT22;36730;49.036;9.094;2023-06-14T10:48:48;27.10;42.90
47174;DHT22;36730;49.036;9.094;2023-06-14T10:51:20;27.10;42.40
47174;DHT22;36730;49.036;9.094;2023-06-14T10:53:46;27.10;42.10
47174;DHT22;36730;49.036;9.094;2023-06-14T10:56:33;27.10;42.50
47174;DHT22;36730;49.036;9.094;2023-06-14T10:58:58;27.20;42.50
47174;DHT22;36730;49.036;9.094;2023-06-14T11:01:48;27.20;43.00
47174;DHT22;36730;49.036;9.094;2023-06-14T11:04:12;27.30;42.50
47174;DHT22;36730;49.036;9.094;2023-06-14T11:06:47;27.30;42.80
47174;DHT22;36730;49.036;9.094;2023-06-14T11:11:59;27.30;43.80
47174;DHT22;36730;49.036;9.094;2023-06-14T11:14:26;27.30;42.70
47174;DHT22;36730;49.036;9.094;2023-06-14T11:16:54;27.30;42.60
47174;DHT22;36730;49.036;9.094;2023-06-14T11:19:21;27.30;43.80
47174;DHT22;36730;49.036;9.094;2023-06-14T11:21:47;27.30;42.50
47174;DHT22;36730;49.036;9.094;2023-06-14T11:24:12;27.40;43.50
47174;DHT22;36730;49.036;9.094;2023-06-14T11:26:38;27.40;43.10
47174;DHT22;36730;49.036;9.094;2023-06-14T11:29:03;27.40;42.50
47174;DHT22;36730;49.036;9.094;2023-06-14T11:31:29;27.40;42.50
47174;DHT22;36730;49.036;9.094;2023-06-14T11:33:55;27.50;42.60
47174;DHT22;36730;49.036;9.094;2023-06-14T11:36:22;27.50;42.20
47174;DHT22;36730;49.036;9.094;2023-06-14T11:38:48;27.60;42.80
47174;DHT22;36730;49.036;9.094;2023-06-14T11:41:13;27.60;42.80
47174;DHT22;36730;49.036;9.094;2023-06-14T11:43:39;27.60;42.50
47174;DHT22;36730;49.036;9.094;2023-06-14T11:46:11;27.60;42.70
47174;DHT22;36730;49.036;9.094;2023-06-14T11:48:38;27.60;41.90
47174;DHT22;36730;49.036;9.094;2023-06-14T11:51:04;27.60;42.50
47174;DHT22;36730;49.036;9.094;2023-06-14T11:53:30;27.60;42.00
47174;DHT22;36730;49.036;9.094;2023-06-14T11:55:56;27.60;41.70
47174;DHT22;36730;49.036;9.094;2023-06-14T11:58:22;27.70;41.50
47174;DHT22;36730;49.036;9.094;2023-06-14T12:00:50;27.70;41.70
47174;DHT22;36730;49.036;9.094;2023-06-14T12:03:16;27.70;41.90
47174;DHT22;36730;49.036;9.094;2023-06-14T12:05:41;27.80;42.00
47174;DHT22;36730;49.036;9.094;2023-06-14T12:08:07;27.80;41.60
47174;DHT22;36730;49.036;9.094;2023-06-14T12:10:39;27.80;42.00
47174;DHT22;36730;49.036;9.094;2023-06-14T12:13:06;27.90;41.70
47174;DHT22;36730;49.036;9.094;2023-06-14T12:15:31;28.00;41.60
47174;DHT22;36730;49.036;9.094;2023-06-14T12:17:57;28.00;41.50
47174;DHT22;36730;49.036;9.094;2023-06-14T12:20:23;28.00;42.20
47174;DHT22;36730;49.036;9.094;2023-06-14T12:22:57;28.00;41.60
47174;DHT22;36730;49.036;9.094;2023-06-14T12:25:33;28.10;41.50
47174;DHT22;36730;49.036;9.094;2023-06-14T12:28:07;28.10;41.90
47174;DHT22;36730;49.036;9.094;2023-06-14T12:30:33;28.10;41.80
47174;DHT22;36730;49.036;9.094;2023-06-14T12:32:59;28.10;41.40
47174;DHT22;36730;49.036;9.094;2023-06-14T12:35:25;28.20;41.60
47174;DHT22;36730;49.036;9.094;2023-06-14T12:37:51;28.20;41.60
47174;DHT22;36730;49.036;9.094;2023-06-14T12:40:16;28.30;41.80
47174;DHT22;36730;49.036;9.094;2023-06-14T12:42:42;28.30;41.90
47174;DHT22;36730;49.036;9.094;2023-06-14T12:45:08;28.30;41.30
47174;DHT22;36730;49.036;9.094;2023-06-14T12:47:33;28.30;41.00
47174;DHT22;36730;49.036;9.094;2023-06-14T12:49:59;28.40;41.40
47174;DHT22;36730;49.036;9.094;2023-06-14T12:52:24;28.40;41.00
47174;DHT22;36730;49.036;9.094;2023-06-14T12:54:50;28.50;41.80
47174;DHT22;36730;49.036;9.094;2023-06-14T12:57:15;28.50;41.30
47174;DHT22;36730;49.036;9.094;2023-06-14T12:59:41;28.60;41.20
47174;DHT22;36730;49.036;9.094;2023-06-14T13:02:16;28.60;41.40
47174;DHT22;36730;49.036;9.094;2023-06-14T13:04:42;28.50;41.40
47174;DHT22;36730;49.036;9.094;2023-06-14T13:07:07;28.50;41.10
47174;DHT22;36730;49.036;9.094;2023-06-14T13:09:33;28.50;41.80
47174;DHT22;36730;49.036;9.094;2023-06-14T13:11:58;28.50;41.90
47174;DHT22;36730;49.036;9.094;2023-06-14T13:14:24;28.40;41.80
47174;DHT22;36730;49.036;9.094;2023-06-14T13:16:49;28.40;42.10
47174;DHT22;36730;49.036;9.094;2023-06-14T13:19:15;28.40;41.90
47174;DHT22;36730;49.036;9.094;2023-06-14T13:21:41;28.40;41.90
47174;DHT22;36730;49.036;9.094;2023-06-14T13:24:06;28.40;42.50
47174;DHT22;36730;49.036;9.094;2023-06-14T13:26:32;28.40;41.80
47174;DHT22;36730;49.036;9.094;2023-06-14T13:28:58;28.40;42.00
47174;DHT22;36730;49.036;9.094;2023-06-14T13:31:24;28.40;42.00
47174;DHT22;36730;49.036;9.094;2023-06-14T13:33:49;28.40;41.90
47174;DHT22;36730;49.036;9.094;2023-06-14T13:36:14;28.50;42.20
47174;DHT22;36730;49.036;9.094;2023-06-14T13:38:40;28.50;42.10
47174;DHT22;36730;49.036;9.094;2023-06-14T13:41:06;28.60;41.90
47174;DHT22;36730;49.036;9.094;2023-06-14T13:43:31;28.60;42.20
47174;DHT22;36730;49.036;9.094;2023-06-14T13:45:56;28.60;42.40
47174;DHT22;36730;49.036;9.094;2023-06-14T13:48:22;28.60;42.20
47174;DHT22;36730;49.036;9.094;2023-06-14T13:50:47;28.60;41.60
47174;DHT22;36730;49.036;9.094;2023-06-14T13:53:13;28.60;42.10
47174;DHT22;36730;49.036;9.094;2023-06-14T13:55:39;28.60;41.90
47174;DHT22;36730;49.036;9.094;2023-06-14T13:58:04;28.70;42.10
47174;DHT22;36730;49.036;9.094;2023-06-14T14:00:30;28.70;41.80
47174;DHT22;36730;49.036;9.094;2023-06-14T14:02:55;28.60;42.10
47174;DHT22;36730;49.036;9.094;2023-06-14T14:05:22;28.60;42.60
47174;DHT22;36730;49.036;9.094;2023-06-14T14:07:53;28.50;42.60
47174;DHT22;36730;49.036;9.094;2023-06-14T14:10:20;28.50;42.50
47174;DHT22;36730;49.036;9.094;2023-06-14T14:12:45;28.40;43.00
47174;DHT22;36730;49.036;9.094;2023-06-14T14:15:11;28.40;43.00
47174;DHT22;36730;49.036;9.094;2023-06-14T14:17:40;28.40;42.80
47174;DHT22;36730;49.036;9.094;2023-06-14T14:20:06;28.40;44.10
47174;DHT22;36730;49.036;9.094;2023-06-14T14:22:32;28.40;42.90
47174;DHT22;36730;49.036;9.094;2023-06-14T14:24:57;28.40;42.70
47174;DHT22;36730;49.036;9.094;2023-06-14T14:27:23;28.40;42.50
47174;DHT22;36730;49.036;9.094;2023-06-14T14:29:48;28.40;42.30
47174;DHT22;36730;49.036;9.094;2023-06-14T14:32:14;28.40;42.40
47174;DHT22;36730;49.036;9.094;2023-06-14T14:34:40;28.40;41.70
47174;DHT22;36730;49.036;9.094;2023-06-14T14:37:05;28.40;42.30
47174;DHT22;36730;49.036;9.094;2023-06-14T14:39:31;28.50;41.60
47174;DHT22;36730;49.036;9.094;2023-06-14T14:41:56;28.50;41.10
47174;DHT22;36730;49.036;9.094;2023-06-14T14:44:22;28.50;41.70
47174;DHT22;36730;49.036;9.094;2023-06-14T14:46:47;28.50;42.50
47174;DHT22;36730;49.036;9.094;2023-06-14T14:49:13;28.50;42.30
47174;DHT22;36730;49.036;9.094;2023-06-14T14:51:38;28.50;42.20
47174;DHT22;36730;49.036;9.094;2023-06-14T14:54:05;28.50;42.10
47174;DHT22;36730;49.036;9.094;2023-06-14T14:56:31;28.50;42.50
47174;DHT22;36730;49.036;9.094;2023-06-14T14:58:56;28.50;42.10
47174;DHT22;36730;49.036;9.094;2023-06-14T15:01:22;28.50;42.60
47174;DHT22;36730;49.036;9.094;2023-06-14T15:03:47;28.50;42.50
47174;DHT22;36730;49.036;9.094;2023-06-14T15:06:12;28.50;42.20
47174;DHT22;36730;49.036;9.094;2023-06-14T15:08:38;28.50;42.60
47174;DHT22;36730;49.036;9.094;2023-06-14T15:11:03;28.50;42.10
47174;DHT22;36730;49.036;9.094;2023-06-14T15:13:29;28.50;43.20
47174;DHT22;36730;49.036;9.094;2023-06-14T15:15:54;28.50;41.70
47174;DHT22;36730;49.036;9.094;2023-06-14T15:18:20;28.50;42.40
47174;DHT22;36730;49.036;9.094;2023-06-14T15:20:47;28.50;42.10
47174;DHT22;36730;49.036;9.094;2023-06-14T15:23:12;28.60;43.10
47174;DHT22;36730;49.036;9.094;2023-06-14T15:25:44;28.60;41.90
47174;DHT22;36730;49.036;9.094;2023-06-14T15:28:10;28.60;41.90
47174;DHT22;36730;49.036;9.094;2023-06-14T15:30:35;28.60;42.10
47174;DHT22;36730;49.036;9.094;2023-06-14T15:33:01;28.70;40.90
47174;DHT22;36730;49.036;9.094;2023-06-14T15:35:26;28.70;40.10